Time,TemperatureF,DewpointF,PressureIn,WindDirection,WindDirectionDegrees,WindSpeedMPH,WindSpeedGustMPH,Humidity,HourlyPrecipIn,Conditions,Clouds,dailyrainin,SoftwareType,DateUTC
2013-01-10 00:00:00,35.4,21.7,30.33,West,262,11.5,11.5,57,0.00,CLR,,0.00,WeatherDisplay:10.37,2013-01-10 05:00:00,
2013-01-10 00:01:00,35.4,21.7,30.33,WNW,295,9.2,9.2,57,0.00,CLR,,0.00,WeatherDisplay:10.37,2013-01-10 05:01:00,
2013-01-10 00:02:00,35.4,21.7,30.33,West,260,10.4,10.4,57,0.00,CLR,,0.00,WeatherDisplay:10.37,2013-01-10 05:02:00,
2013-01-10 00:04:00,35.4,21.7,30.33,NW,321,10.4,10.4,57,0.00,CLR,,0.00,WeatherDisplay:10.37,2013-01-10 05:04:00,
2013-01-10 00:09:00,35.4,22.1,30.33,WNW,292,11.5,11.5,58,0.00,CLR,,0.00,WeatherDisplay:10.37,2013-01-10 05:09:00,
2013-01-10 00:14:00,35.2,21.9,30.33,West,268,12.7,12.7,58,0.00,CLR,,0.00,WeatherDisplay:10.37,2013-01-10 05:14:00,
2013-01-10 00:19:00,35.2,22.3,30.33,West,278,9.2,9.2,59,0.00,CLR,,0.00,WeatherDisplay:10.37,2013-01-10 05:19:00,
2013-01-10 00:24:00,35.1,22.2,30.33,WNW,288,12.7,12.7,59,0.00,CLR,,0.00,WeatherDisplay:10.37,2013-01-10 05:24:00,
2013-01-10 00:29:00,34.9,22.0,30.33,WSW,256,12.7,12.7,59,0.00,CLR,,0.00,WeatherDisplay:10.37,2013-01-10 05:29:00,
2013-01-10 00:34:00,35.1,21.8,30.33,West,268,13.8,13.8,58,0.00,CLR,,0.00,WeatherDisplay:10.37,2013-01-10 05:34:00,
2013-01-10 00:39:00,35.1,21.8,30.33,West,274,12.7,12.7,58,0.00,CLR,,0.00,WeatherDisplay:10.37,2013-01-10 05:39:00,
2013-01-10 00:44:00,34.9,21.6,30.33,WNW,295,10.4,10.4,58,0.00,CLR,,0.00,WeatherDisplay:10.37,2013-01-10 05:44:00,
2013-01-10 00:49:00,34.7,21.4,30.33,NW,314,10.4,10.4,58,0.00,CLR,,0.00,WeatherDisplay:10.37,2013-01-10 05:49:00,
2013-01-10 00:54:00,34.7,21.8,30.33,West,272,9.2,9.2,59,0.00,CLR,,0.00,WeatherDisplay:10.37,2013-01-10 05:54:00,
2013-01-10 00:59:00,34.5,21.2,30.33,West,277,16.1,16.1,58,0.00,CLR,,0.00,WeatherDisplay:10.37,2013-01-10 05:59:00,
2013-01-10 01:04:00,34.5,21.2,30.36,NW,311,8.1,8.1,58,0.00,CLR,,0.00,WeatherDisplay:10.37,2013-01-10 06:04:00,
2013-01-10 01:09:00,34.3,21.1,30.36,WNW,283,15.0,15.0,58,0.00,CLR,,0.00,WeatherDisplay:10.37,2013-01-10 06:09:00,
2013-01-10 01:14:00,34.3,21.1,30.36,WNW,287,12.7,12.7,58,0.00,CLR,,0.00,WeatherDisplay:10.37,2013-01-10 06:14:00,
2013-01-10 01:19:00,34.3,21.5,30.36,NW,308,15.0,15.0,59,0.00,CLR,,0.00,WeatherDisplay:10.37,2013-01-10 06:19:00,
2013-01-10 01:24:00,34.3,21.5,30.36,WNW,298,9.2,9.2,59,0.00,CLR,,0.00,WeatherDisplay:10.37,2013-01-10 06:24:00,
2013-01-10 01:29:00,34.3,21.5,30.36,WSW,248,8.1,8.1,59,0.00,CLR,,0.00,WeatherDisplay:10.37,2013-01-10 06:29:00,
2013-01-10 01:34:00,34.2,21.3,30.36,WNW,302,12.7,12.7,59,0.00,CLR,,0.00,WeatherDisplay:10.37,2013-01-10 06:34:00,
2013-01-10 01:39:00,34.0,21.5,30.36,NW,320,15.0,15.0,60,0.00,CLR,,0.00,WeatherDisplay:10.37,2013-01-10 06:39:00,
2013-01-10 01:44:00,33.8,21.4,30.36,WSW,242,11.5,11.5,60,0.00,CLR,,0.00,WeatherDisplay:10.37,2013-01-10 06:44:00,
2013-01-10 01:49:00,34.0,21.5,30.36,NNW,328,8.1,8.1,60,0.00,CLR,,0.00,WeatherDisplay:10.37,2013-01-10 06:49:00,
2013-01-10 01:54:00,33.8,21.8,30.36,WNW,297,11.5,11.5,61,0.00,CLR,,0.00,WeatherDisplay:10.37,2013-01-10 06:54:00,
2013-01-10 01:59:00,33.8,21.8,30.36,WNW,299,15.0,15.0,61,0.00,CLR,,0.00,WeatherDisplay:10.37,2013-01-10 06:59:00,
2013-01-10 02:04:00,33.8,21.8,30.36,WNW,302,13.2,13.2,61,0.00,CLR,,0.00,WeatherDisplay:10.37,2013-01-10 07:04:00,
2013-01-10 02:09:00,33.8,21.8,30.36,West,262,11.5,11.5,61,0.00,CLR,,0.00,WeatherDisplay:10.37,2013-01-10 07:09:00,
2013-01-10 02:14:00,33.8,22.1,30.36,NW,324,10.4,10.4,62,0.00,CLR,,0.00,WeatherDisplay:10.37,2013-01-10 07:14:00,
2013-01-10 02:19:00,33.6,22.0,30.36,WNW,288,11.5,11.5,62,0.00,CLR,,0.00,WeatherDisplay:10.37,2013-01-10 07:19:00,
2013-01-10 02:24:00,33.6,22.4,30.36,North,353,12.7,12.7,63,0.00,CLR,,0.00,WeatherDisplay:10.37,2013-01-10 07:24:00,
2013-01-10 02:29:00,33.3,22.4,30.36,WNW,301,10.4,10.4,64,0.00,CLR,,0.00,WeatherDisplay:10.37,2013-01-10 07:29:00,
2013-01-10 02:34:00,33.3,22.8,30.36,WNW,299,15.0,15.0,65,0.00,CLR,,0.00,WeatherDisplay:10.37,2013-01-10 07:34:00,
2013-01-10 02:39:00,33.4,22.9,30.36,WNW,295,15.0,15.0,65,0.00,CLR,,0.00,WeatherDisplay:10.37,2013-01-10 07:39:00,
2013-01-10 02:44:00,33.3,22.4,30.36,WNW,303,9.2,9.2,64,0.00,CLR,,0.00,WeatherDisplay:10.37,2013-01-10 07:44:00,
2013-01-10 02:49:00,33.1,22.6,30.36,NNW,342,11.5,11.5,65,0.00,CLR,,0.00,WeatherDisplay:10.37,2013-01-10 07:49:00,
2013-01-10 02:54:00,33.1,22.9,30.36,NNW,335,15.0,15.0,66,0.00,CLR,,0.00,WeatherDisplay:10.37,2013-01-10 07:54:00,
2013-01-10 02:59:00,33.1,22.9,30.36,NW,319,12.7,12.7,66,0.00,CLR,,0.00,WeatherDisplay:10.37,2013-01-10 07:59:00,
2013-01-10 03:04:00,32.9,23.1,30.36,NW,305,11.4,11.4,67,0.00,CLR,,0.00,WeatherDisplay:10.37,2013-01-10 08:04:00,
2013-01-10 03:09:00,32.7,23.3,30.36,NW,306,15.0,15.0,68,0.00,CLR,,0.00,WeatherDisplay:10.37,2013-01-10 08:09:00,
2013-01-10 03:14:00,32.5,23.5,30.36,NNW,338,10.4,10.4,69,0.00,CLR,,0.00,WeatherDisplay:10.37,2013-01-10 08:14:00,
2013-01-10 03:19:00,32.5,23.5,30.36,NNW,334,15.0,15.0,69,0.00,CLR,,0.00,WeatherDisplay:10.37,2013-01-10 08:19:00,
2013-01-10 03:24:00,32.5,23.5,30.36,NW,316,10.4,10.4,69,0.00,CLR,,0.00,WeatherDisplay:10.37,2013-01-10 08:24:00,
2013-01-10 03:29:00,32.5,23.8,30.36,NW,317,15.0,15.0,70,0.00,CLR,,0.00,WeatherDisplay:10.37,2013-01-10 08:29:00,
2013-01-10 03:34:00,32.5,23.8,30.39,NNW,341,10.4,10.4,70,0.00,CLR,,0.00,WeatherDisplay:10.37,2013-01-10 08:34:00,
2013-01-10 03:39:00,32.4,23.7,30.39,NW,307,11.5,11.5,70,0.00,CLR,,0.00,WeatherDisplay:10.37,2013-01-10 08:39:00,
2013-01-10 03:44:00,32.2,23.8,30.39,NNW,328,11.5,11.5,71,0.00,CLR,,0.00,WeatherDisplay:10.37,2013-01-10 08:44:00,
2013-01-10 03:49:00,32.2,23.8,30.36,WNW,294,6.9,6.9,71,0.00,CLR,,0.00,WeatherDisplay:10.37,2013-01-10 08:49:00,
2013-01-10 03:54:00,32.0,23.7,30.36,WNW,292,11.5,11.5,71,0.00,CLR,,0.00,WeatherDisplay:10.37,2013-01-10 08:54:00,
2013-01-10 03:59:00,31.8,23.8,30.36,NNW,339,10.4,10.4,72,0.00,CLR,,0.00,WeatherDisplay:10.37,2013-01-10 08:59:00,
2013-01-10 04:04:00,31.8,23.8,30.36,WNW,295,12.7,12.7,72,0.00,CLR,,0.00,WeatherDisplay:10.37,2013-01-10 09:04:00,
2013-01-10 04:09:00,31.8,23.8,30.36,West,272,6.9,6.9,72,0.00,CLR,,0.00,WeatherDisplay:10.37,2013-01-10 09:09:00,
2013-01-10 04:14:00,31.6,24.0,30.36,NNW,336,9.2,9.2,73,0.00,CLR,,0.00,WeatherDisplay:10.37,2013-01-10 09:14:00,
2013-01-10 04:19:00,31.6,24.0,30.36,WNW,288,12.7,12.7,73,0.00,CLR,,0.00,WeatherDisplay:10.37,2013-01-10 09:19:00,
2013-01-10 04:24:00,31.6,24.0,30.36,NW,314,13.8,13.8,73,0.00,CLR,,0.00,WeatherDisplay:10.37,2013-01-10 09:24:00,
2013-01-10 04:29:00,31.5,23.8,30.36,NNW,329,10.4,10.4,73,0.00,CLR,,0.00,WeatherDisplay:10.37,2013-01-10 09:29:00,
2013-01-10 04:34:00,31.5,23.8,30.36,West,273,8.1,8.1,73,0.00,CLR,,0.00,WeatherDisplay:10.37,2013-01-10 09:34:00,
2013-01-10 04:39:00,31.5,23.8,30.36,WSW,244,6.9,6.9,73,0.00,CLR,,0.00,WeatherDisplay:10.37,2013-01-10 09:39:00,
2013-01-10 04:44:00,31.5,23.8,30.36,NW,312,10.4,10.4,73,0.00,CLR,,0.00,WeatherDisplay:10.37,2013-01-10 09:44:00,
2013-01-10 04:49:00,31.3,23.6,30.36,NW,307,5.8,5.8,73,0.00,CLR,,0.00,WeatherDisplay:10.37,2013-01-10 09:49:00,
2013-01-10 04:54:00,31.3,24.0,30.36,NNW,337,5.8,5.8,74,0.00,CLR,,0.00,WeatherDisplay:10.37,2013-01-10 09:54:00,
2013-01-10 04:59:00,31.3,24.0,30.36,NNW,327,4.0,4.0,74,0.00,CLR,,0.00,WeatherDisplay:10.37,2013-01-10 09:59:00,
2013-01-10 05:04:00,31.1,23.8,30.39,NNW,339,11.5,11.5,74,0.00,CLR,,0.00,WeatherDisplay:10.37,2013-01-10 10:04:00,
2013-01-10 05:09:00,31.1,24.1,30.39,WNW,296,3.5,3.5,75,0.00,CLR,,0.00,WeatherDisplay:10.37,2013-01-10 10:09:00,
2013-01-10 05:15:00,30.9,23.6,30.39,West,267,3.5,0.0,74,0.00,CLR,,0.00,WeatherDisplay:10.37,2013-01-10 10:15:00,
2013-01-10 05:20:00,30.9,23.9,30.39,West,281,6.3,6.3,75,0.00,CLR,,0.00,WeatherDisplay:10.37,2013-01-10 10:20:00,
2013-01-10 05:25:00,30.7,23.8,30.39,NW,317,5.8,5.8,75,0.00,CLR,,0.00,WeatherDisplay:10.37,2013-01-10 10:25:00,
2013-01-10 05:30:00,30.6,24.2,30.39,NW,314,5.8,5.8,77,0.00,CLR,,0.00,WeatherDisplay:10.37,2013-01-10 10:30:00,
2013-01-10 05:35:00,30.4,24.0,30.39,WNW,302,8.1,8.1,77,0.00,CLR,,0.00,WeatherDisplay:10.37,2013-01-10 10:35:00,
2013-01-10 05:40:00,30.4,24.0,30.39,WNW,298,9.2,9.2,77,0.00,CLR,,0.00,WeatherDisplay:10.37,2013-01-10 10:40:00,
2013-01-10 05:45:00,30.2,24.2,30.39,NW,318,8.1,8.1,78,0.00,CLR,,0.00,WeatherDisplay:10.37,2013-01-10 10:45:00,
2013-01-10 05:50:00,30.2,24.5,30.39,NNW,333,4.6,4.6,79,0.00,CLR,,0.00,WeatherDisplay:10.37,2013-01-10 10:50:00,
2013-01-10 05:55:00,30.2,24.8,30.39,NW,312,5.8,5.8,80,0.00,CLR,,0.00,WeatherDisplay:10.37,2013-01-10 10:55:00,
2013-01-10 06:00:00,30.2,25.1,30.39,NW,318,5.8,5.8,81,0.00,CLR,,0.00,WeatherDisplay:10.37,2013-01-10 11:00:00,
2013-01-10 06:05:00,30.2,25.1,30.42,NW,325,8.1,8.1,81,0.00,CLR,,0.00,WeatherDisplay:10.37,2013-01-10 11:05:00,
2013-01-10 06:10:00,30.2,25.4,30.42,NW,318,8.1,8.1,82,0.00,CLR,,0.00,WeatherDisplay:10.37,2013-01-10 11:10:00,
2013-01-10 06:15:00,30.0,25.2,30.42,WNW,298,9.2,9.2,82,0.00,CLR,,0.00,WeatherDisplay:10.37,2013-01-10 11:15:00,
2013-01-10 06:20:00,29.7,24.8,30.42,NW,311,4.6,4.6,82,0.00,CLR,,0.00,WeatherDisplay:10.37,2013-01-10 11:20:00,
2013-01-10 06:25:00,29.8,25.3,30.42,NW,313,5.8,5.8,83,0.00,CLR,,0.00,WeatherDisplay:10.37,2013-01-10 11:25:00,
2013-01-10 06:30:00,29.8,25.6,30.42,NW,322,8.1,8.1,84,0.00,CLR,,0.00,WeatherDisplay:10.37,2013-01-10 11:30:00,
2013-01-10 06:35:00,29.7,25.4,30.42,NNW,328,8.1,8.1,84,0.00,CLR,,0.00,WeatherDisplay:10.37,2013-01-10 11:35:00,
2013-01-10 06:40:00,29.5,25.2,30.42,NW,312,5.8,5.8,84,0.00,CLR,,0.00,WeatherDisplay:10.37,2013-01-10 11:40:00,
2013-01-10 06:45:00,29.3,25.4,30.42,West,280,5.8,5.8,85,0.00,CLR,,0.00,WeatherDisplay:10.37,2013-01-10 11:45:00,
2013-01-10 06:50:00,29.3,25.4,30.42,NW,308,5.8,5.8,85,0.00,CLR,,0.00,WeatherDisplay:10.37,2013-01-10 11:50:00,
2013-01-10 06:55:00,29.3,25.6,30.42,NNW,335,8.7,8.7,86,0.00,CLR,,0.00,WeatherDisplay:10.37,2013-01-10 11:55:00,
2013-01-10 07:00:00,29.5,26.1,30.42,WNW,291,5.8,5.8,87,0.00,CLR,,0.00,WeatherDisplay:10.37,2013-01-10 12:00:00,
2013-01-10 07:05:00,29.5,26.1,30.42,NW,309,5.8,5.8,87,0.00,CLR,,0.00,WeatherDisplay:10.37,2013-01-10 12:05:00,
2013-01-10 07:10:00,29.5,26.1,30.42,North,353,5.8,5.8,87,0.00,CLR,,0.00,WeatherDisplay:10.37,2013-01-10 12:10:00,
2013-01-10 07:15:00,29.3,25.9,30.44,NNW,345,5.8,5.8,87,0.00,CLR,,0.00,WeatherDisplay:10.37,2013-01-10 12:15:00,
2013-01-10 07:20:00,29.5,26.1,30.44,NNW,338,5.8,5.8,87,0.00,CLR,,0.00,WeatherDisplay:10.37,2013-01-10 12:20:00,
2013-01-10 07:25:00,29.1,25.7,30.44,NW,316,4.6,4.6,87,0.00,CLR,,0.00,WeatherDisplay:10.37,2013-01-10 12:25:00,
2013-01-10 07:30:00,28.8,25.1,30.44,NW,316,3.6,0.0,86,0.00,CLR,,0.00,WeatherDisplay:10.37,2013-01-10 12:30:00,
2013-01-10 07:35:00,28.6,24.9,30.44,NW,316,4.6,4.6,86,0.00,CLR,,0.00,WeatherDisplay:10.37,2013-01-10 12:35:00,
2013-01-10 07:40:00,28.4,24.7,30.44,NW,316,5.8,5.8,86,0.00,CLR,,0.00,WeatherDisplay:10.37,2013-01-10 12:40:00,
2013-01-10 07:45:00,28.2,24.8,30.44,NW,324,5.8,5.8,87,0.00,CLR,,0.00,WeatherDisplay:10.37,2013-01-10 12:45:00,
2013-01-10 07:50:00,28.2,24.8,30.44,NW,319,5.8,5.8,87,0.00,CLR,,0.00,WeatherDisplay:10.37,2013-01-10 12:50:00,
2013-01-10 07:55:00,28.0,24.7,30.44,NW,319,5.8,5.8,87,0.00,CLR,,0.00,WeatherDisplay:10.37,2013-01-10 12:55:00,
2013-01-10 08:00:00,28.0,24.9,30.44,NW,320,4.0,4.0,88,0.00,CLR,,0.00,WeatherDisplay:10.37,2013-01-10 13:00:00,
2013-01-10 08:05:00,28.0,24.9,30.44,NW,320,5.8,5.8,88,0.00,CLR,,0.00,WeatherDisplay:10.37,2013-01-10 13:05:00,
2013-01-10 08:10:00,28.2,25.4,30.44,NW,320,5.8,5.8,89,0.00,CLR,,0.00,WeatherDisplay:10.37,2013-01-10 13:10:00,
2013-01-10 08:15:00,28.4,25.6,30.44,NW,320,6.3,6.3,89,0.00,CLR,,0.00,WeatherDisplay:10.37,2013-01-10 13:15:00,
2013-01-10 08:20:00,28.6,25.8,30.44,NW,321,5.8,5.8,89,0.00,CLR,,0.00,WeatherDisplay:10.37,2013-01-10 13:20:00,
2013-01-10 08:25:00,28.6,25.8,30.44,NW,321,5.8,5.8,89,0.00,CLR,,0.00,WeatherDisplay:10.37,2013-01-10 13:25:00,
2013-01-10 08:30:00,28.6,25.8,30.44,NW,321,5.8,5.8,89,0.00,CLR,,0.00,WeatherDisplay:10.37,2013-01-10 13:30:00,
2013-01-10 08:35:00,28.6,25.8,30.44,NW,321,3.5,3.5,89,0.00,CLR,,0.00,WeatherDisplay:10.37,2013-01-10 13:35:00,
2013-01-10 08:40:00,28.6,26.0,30.44,NW,321,5.8,5.8,90,0.00,CLR,,0.00,WeatherDisplay:10.37,2013-01-10 13:40:00,
2013-01-10 08:45:00,28.8,26.2,30.48,NW,321,3.5,3.5,90,0.00,CLR,,0.00,WeatherDisplay:10.37,2013-01-10 13:45:00,
2013-01-10 08:50:00,28.9,26.4,30.48,NW,321,5.8,5.8,90,0.00,CLR,,0.00,WeatherDisplay:10.37,2013-01-10 13:50:00,
2013-01-10 08:55:00,29.1,26.6,30.48,NW,321,3.5,3.5,90,0.00,CLR,,0.00,WeatherDisplay:10.37,2013-01-10 13:55:00,
2013-01-10 09:00:00,29.5,26.9,30.48,NW,322,4.9,4.9,90,0.00,CLR,,0.00,WeatherDisplay:10.37,2013-01-10 14:00:00,
2013-01-10 09:05:00,29.7,27.1,30.48,NW,322,3.5,3.5,90,0.00,CLR,,0.00,WeatherDisplay:10.37,2013-01-10 14:05:00,
2013-01-10 09:10:00,29.8,27.3,30.48,NW,322,2.3,0.0,90,0.00,CLR,,0.00,WeatherDisplay:10.37,2013-01-10 14:10:00,
2013-01-10 09:15:00,29.8,27.3,30.48,NE,43,5.8,5.8,90,0.00,CLR,,0.00,WeatherDisplay:10.37,2013-01-10 14:15:00,
2013-01-10 09:20:00,29.7,26.8,30.48,NNE,12,4.9,4.9,89,0.00,CLR,,0.00,WeatherDisplay:10.37,2013-01-10 14:20:00,
2013-01-10 09:25:00,29.7,26.8,30.48,North,1,3.5,3.5,89,0.00,CLR,,0.00,WeatherDisplay:10.37,2013-01-10 14:25:00,
2013-01-10 09:30:00,29.8,26.7,30.48,North,5,3.5,3.5,88,0.00,CLR,,0.00,WeatherDisplay:10.37,2013-01-10 14:30:00,
2013-01-10 09:35:00,30.0,26.9,30.48,North,0,5.8,0.0,88,0.00,CLR,,0.00,WeatherDisplay:10.37,2013-01-10 14:35:00,
2013-01-10 09:40:00,30.2,26.5,30.48,NE,43,4.6,0.0,86,0.00,CLR,,0.00,WeatherDisplay:10.37,2013-01-10 14:40:00,
2013-01-10 09:45:00,30.4,26.1,30.48,NE,45,3.5,0.0,84,0.00,CLR,,0.00,WeatherDisplay:10.37,2013-01-10 14:45:00,
2013-01-10 09:50:00,30.6,25.7,30.48,North,9,3.5,0.0,82,0.00,CLR,,0.00,WeatherDisplay:10.37,2013-01-10 14:50:00,
2013-01-10 09:55:00,30.9,25.5,30.48,NE,34,5.8,5.8,80,0.00,CLR,,0.00,WeatherDisplay:10.37,2013-01-10 14:55:00,
2013-01-10 10:00:00,31.6,25.6,30.48,NNE,21,5.8,5.8,78,0.00,CLR,,0.00,WeatherDisplay:10.37,2013-01-10 15:00:00,
2013-01-10 10:05:00,32.2,25.5,30.48,NNE,19,3.5,3.5,76,0.00,CLR,,0.00,WeatherDisplay:10.37,2013-01-10 15:05:00,
2013-01-10 10:10:00,32.5,24.8,30.48,North,350,5.8,0.0,73,0.00,CLR,,0.00,WeatherDisplay:10.37,2013-01-10 15:10:00,
2013-01-10 10:15:00,32.9,24.5,30.48,North,350,2.3,0.0,71,0.00,CLR,,0.00,WeatherDisplay:10.37,2013-01-10 15:15:00,
2013-01-10 10:20:00,32.9,23.5,30.48,North,350,3.5,0.0,68,0.00,CLR,,0.00,WeatherDisplay:10.37,2013-01-10 15:20:00,
2013-01-10 10:25:00,33.1,23.3,30.48,North,350,3.5,3.5,67,0.00,CLR,,0.00,WeatherDisplay:10.37,2013-01-10 15:25:00,
2013-01-10 10:30:00,33.3,23.5,30.48,NNW,345,4.6,4.6,67,0.00,CLR,,0.00,WeatherDisplay:10.37,2013-01-10 15:30:00,
2013-01-10 10:35:00,33.3,23.8,30.48,NNW,345,4.6,4.6,68,0.00,CLR,,0.00,WeatherDisplay:10.37,2013-01-10 15:35:00,
2013-01-10 10:40:00,33.8,24.4,30.48,NNW,345,3.5,3.5,68,0.00,CLR,,0.00,WeatherDisplay:10.37,2013-01-10 15:40:00,
2013-01-10 10:45:00,34.2,24.3,30.48,NNW,345,0.0,0.0,67,0.00,CLR,,0.00,WeatherDisplay:10.37,2013-01-10 15:45:00,
2013-01-10 10:50:00,34.2,23.2,30.48,NNW,345,3.5,3.6,64,0.00,CLR,,0.00,WeatherDisplay:10.37,2013-01-10 15:50:00,
2013-01-10 10:55:00,34.2,22.9,30.48,NNW,345,0.0,0.0,63,0.00,CLR,,0.00,WeatherDisplay:10.37,2013-01-10 15:55:00,
2013-01-10 11:00:00,34.5,23.6,30.48,NNW,345,0.0,0.0,64,0.00,CLR,,0.00,WeatherDisplay:10.37,2013-01-10 16:00:00,
2013-01-10 11:05:00,34.7,23.8,30.48,NNW,345,0.0,0.0,64,0.00,CLR,,0.00,WeatherDisplay:10.37,2013-01-10 16:05:00,
2013-01-10 11:10:00,35.1,24.1,30.48,NNW,345,0.0,0.0,64,0.00,CLR,,0.00,WeatherDisplay:10.37,2013-01-10 16:10:00,
2013-01-10 11:15:00,35.4,23.7,30.48,NNW,345,2.3,0.0,62,0.00,CLR,,0.00,WeatherDisplay:10.37,2013-01-10 16:15:00,
2013-01-10 11:20:00,35.6,23.1,30.48,NNW,345,0.0,0.0,60,0.00,CLR,,0.00,WeatherDisplay:10.37,2013-01-10 16:20:00,
2013-01-10 11:25:00,35.8,23.2,30.48,NNW,345,0.0,0.0,60,0.00,CLR,,0.00,WeatherDisplay:10.37,2013-01-10 16:25:00,
2013-01-10 11:30:00,36.1,23.2,30.44,NNW,345,0.0,0.0,59,0.00,CLR,,0.00,WeatherDisplay:10.37,2013-01-10 16:30:00,
2013-01-10 11:35:00,36.3,22.9,30.44,NNW,345,0.0,0.0,58,0.00,CLR,,0.00,WeatherDisplay:10.37,2013-01-10 16:35:00,
2013-01-10 11:40:00,36.1,21.9,30.44,NNW,345,0.0,0.0,56,0.00,CLR,,0.00,WeatherDisplay:10.37,2013-01-10 16:40:00,
2013-01-10 11:45:00,36.5,22.7,30.44,NNW,345,0.0,0.0,57,0.00,CLR,,0.00,WeatherDisplay:10.37,2013-01-10 16:45:00,
2013-01-10 11:50:00,37.0,22.8,30.44,NNW,345,3.6,3.6,56,0.00,CLR,,0.00,WeatherDisplay:10.37,2013-01-10 16:50:00,
2013-01-10 11:55:00,37.0,22.4,30.44,NNW,346,4.0,4.0,55,0.00,CLR,,0.00,WeatherDisplay:10.37,2013-01-10 16:55:00,
2013-01-10 12:00:00,36.9,22.2,30.44,NNW,346,3.5,3.5,55,0.00,CLR,,0.00,WeatherDisplay:10.37,2013-01-10 17:00:00,
2013-01-10 12:05:00,37.0,22.4,30.44,NNW,346,3.5,3.5,55,0.00,CLR,,0.00,WeatherDisplay:10.37,2013-01-10 17:05:00,
2013-01-10 12:10:00,36.7,21.6,30.44,NNW,346,3.5,3.5,54,0.00,CLR,,0.00,WeatherDisplay:10.37,2013-01-10 17:10:00,
2013-01-10 12:15:00,36.3,21.2,30.44,NNW,345,4.6,4.6,54,0.00,CLR,,0.00,WeatherDisplay:10.37,2013-01-10 17:15:00,
2013-01-10 12:20:00,36.1,21.1,30.44,NNW,345,3.5,3.5,54,0.00,CLR,,0.00,WeatherDisplay:10.37,2013-01-10 17:20:00,
2013-01-10 12:25:00,36.1,21.1,30.44,NNW,345,4.6,4.6,54,0.00,CLR,,0.00,WeatherDisplay:10.37,2013-01-10 17:25:00,
2013-01-10 12:30:00,36.1,21.5,30.44,SSW,195,3.6,3.6,55,0.00,CLR,,0.00,WeatherDisplay:10.37,2013-01-10 17:30:00,
2013-01-10 12:35:00,36.1,21.1,30.44,WSW,248,5.8,5.8,54,0.00,CLR,,0.00,WeatherDisplay:10.37,2013-01-10 17:35:00,
2013-01-10 12:40:00,36.0,20.5,30.44,SW,223,5.8,5.8,53,0.00,CLR,,0.00,WeatherDisplay:10.37,2013-01-10 17:40:00,
2013-01-10 12:45:00,36.0,20.9,30.42,SSW,213,3.5,3.5,54,0.00,CLR,,0.00,WeatherDisplay:10.37,2013-01-10 17:45:00,
2013-01-10 12:50:00,36.1,21.1,30.42,South,184,5.4,5.4,54,0.00,CLR,,0.00,WeatherDisplay:10.37,2013-01-10 17:50:00,
2013-01-10 12:55:00,36.1,20.6,30.42,SW,232,3.5,3.6,53,0.00,CLR,,0.00,WeatherDisplay:10.37,2013-01-10 17:55:00,
2013-01-10 13:00:00,36.3,20.8,30.42,SW,233,0.0,0.0,53,0.00,CLR,,0.00,WeatherDisplay:10.37,2013-01-10 18:00:00,
2013-01-10 13:05:00,36.5,20.5,30.42,SW,215,2.3,0.0,52,0.00,CLR,,0.00,WeatherDisplay:10.37,2013-01-10 18:05:00,
2013-01-10 13:10:00,36.9,20.4,30.42,West,268,4.0,4.0,51,0.00,CLR,,0.00,WeatherDisplay:10.37,2013-01-10 18:10:00,
2013-01-10 13:15:00,37.4,20.4,30.42,West,265,5.8,5.8,50,0.00,CLR,,0.00,WeatherDisplay:10.37,2013-01-10 18:15:00,
2013-01-10 13:20:00,37.4,20.4,30.42,West,273,3.5,3.5,50,0.00,CLR,,0.00,WeatherDisplay:10.37,2013-01-10 18:20:00,
2013-01-10 13:25:00,37.8,20.3,30.42,West,273,3.5,3.5,49,0.00,CLR,,0.00,WeatherDisplay:10.37,2013-01-10 18:25:00,
2013-01-10 13:30:00,38.1,20.1,30.42,West,273,5.8,5.8,48,0.00,CLR,,0.00,WeatherDisplay:10.37,2013-01-10 18:30:00,
2013-01-10 13:35:00,38.3,20.8,30.42,WSW,243,3.5,3.5,49,0.00,CLR,,0.00,WeatherDisplay:10.37,2013-01-10 18:35:00,
2013-01-10 13:40:00,37.9,19.5,30.42,SSW,213,9.2,9.2,47,0.00,CLR,,0.00,WeatherDisplay:10.37,2013-01-10 18:40:00,
2013-01-10 13:45:00,37.4,19.0,30.42,SW,218,5.8,5.8,47,0.00,CLR,,0.00,WeatherDisplay:10.37,2013-01-10 18:45:00,
2013-01-10 13:50:00,37.2,19.8,30.42,South,173,6.9,6.9,49,0.00,CLR,,0.00,WeatherDisplay:10.37,2013-01-10 18:50:00,
2013-01-10 13:55:00,37.4,20.0,30.42,West,261,4.0,4.0,49,0.00,CLR,,0.00,WeatherDisplay:10.37,2013-01-10 18:55:00,
2013-01-10 14:00:00,37.8,20.3,30.42,WNW,298,2.7,0.0,49,0.00,CLR,,0.00,WeatherDisplay:10.37,2013-01-10 19:00:00,
2013-01-10 14:05:00,37.9,20.9,30.42,NW,309,3.5,3.5,50,0.00,CLR,,0.00,WeatherDisplay:10.37,2013-01-10 19:05:00,
2013-01-10 14:10:00,37.8,20.8,30.42,West,273,0.0,0.0,50,0.00,CLR,,0.00,WeatherDisplay:10.37,2013-01-10 19:10:00,
2013-01-10 14:15:00,37.8,20.8,30.42,West,273,3.5,3.5,50,0.00,CLR,,0.00,WeatherDisplay:10.37,2013-01-10 19:15:00,
2013-01-10 14:20:00,38.1,20.6,30.42,West,273,2.7,0.0,49,0.00,CLR,,0.00,WeatherDisplay:10.37,2013-01-10 19:20:00,
2013-01-10 14:25:00,38.5,21.0,30.42,West,273,3.5,3.5,49,0.00,CLR,,0.00,WeatherDisplay:10.37,2013-01-10 19:25:00,
2013-01-10 14:30:00,38.7,21.1,30.42,SW,234,4.9,4.9,49,0.00,CLR,,0.00,WeatherDisplay:10.37,2013-01-10 19:30:00,
2013-01-10 14:35:00,38.7,20.6,30.42,West,267,0.0,0.0,48,0.00,CLR,,0.00,WeatherDisplay:10.37,2013-01-10 19:35:00,
2013-01-10 14:40:00,38.7,20.1,30.42,West,267,4.0,4.0,47,0.00,CLR,,0.00,WeatherDisplay:10.37,2013-01-10 19:40:00,
2013-01-10 14:45:00,38.7,19.6,30.42,West,267,2.3,0.0,46,0.00,CLR,,0.00,WeatherDisplay:10.37,2013-01-10 19:45:00,
2013-01-10 14:50:00,38.7,19.1,30.42,West,267,3.5,3.5,45,0.00,CLR,,0.00,WeatherDisplay:10.37,2013-01-10 19:50:00,
2013-01-10 14:55:00,38.7,19.6,30.42,West,267,0.0,0.0,46,0.00,CLR,,0.00,WeatherDisplay:10.37,2013-01-10 19:55:00,
2013-01-10 15:00:00,38.5,19.0,30.42,West,267,3.5,3.5,45,0.00,CLR,,0.00,WeatherDisplay:10.37,2013-01-10 20:00:00,
2013-01-10 15:06:00,38.5,19.0,30.42,West,267,0.0,0.0,45,0.00,CLR,,0.00,WeatherDisplay:10.37,2013-01-10 20:06:00,
2013-01-10 15:11:00,38.7,19.1,30.42,West,267,0.0,0.0,45,0.00,CLR,,0.00,WeatherDisplay:10.37,2013-01-10 20:11:00,
2013-01-10 15:16:00,38.8,19.8,30.42,West,267,0.0,0.0,46,0.00,CLR,,0.00,WeatherDisplay:10.37,2013-01-10 20:16:00,
2013-01-10 15:21:00,39.2,19.6,30.42,West,267,0.0,0.0,45,0.00,CLR,,0.00,WeatherDisplay:10.37,2013-01-10 20:21:00,
2013-01-10 15:26:00,39.4,19.8,30.42,West,267,0.0,0.0,45,0.00,CLR,,0.00,WeatherDisplay:10.37,2013-01-10 20:26:00,
2013-01-10 15:31:00,39.4,19.8,30.42,West,267,0.0,0.0,45,0.00,CLR,,0.00,WeatherDisplay:10.37,2013-01-10 20:31:00,
2013-01-10 15:36:00,39.0,19.4,30.42,SE,143,7.6,7.6,45,0.00,CLR,,0.00,WeatherDisplay:10.37,2013-01-10 20:36:00,
2013-01-10 15:41:00,38.8,19.3,30.42,SSW,197,3.6,3.6,45,0.00,CLR,,0.00,WeatherDisplay:10.37,2013-01-10 20:41:00,
2013-01-10 15:46:00,38.8,19.8,30.39,SSW,197,3.5,0.0,46,0.00,CLR,,0.00,WeatherDisplay:10.37,2013-01-10 20:46:00,
2013-01-10 15:51:00,38.7,20.1,30.39,SSW,197,3.5,3.5,47,0.00,CLR,,0.00,WeatherDisplay:10.37,2013-01-10 20:51:00,
2013-01-10 15:56:00,38.5,20.0,30.39,SSW,197,3.5,0.0,47,0.00,CLR,,0.00,WeatherDisplay:10.37,2013-01-10 20:56:00,
2013-01-10 16:01:00,38.3,20.3,30.39,SE,133,0.0,0.0,48,0.00,CLR,,0.00,WeatherDisplay:10.37,2013-01-10 21:01:00,
2013-01-10 16:06:00,38.1,20.1,30.39,SE,133,3.5,3.5,48,0.00,CLR,,0.00,WeatherDisplay:10.37,2013-01-10 21:06:00,
2013-01-10 16:11:00,37.8,20.3,30.39,SE,139,4.0,4.0,49,0.00,CLR,,0.00,WeatherDisplay:10.37,2013-01-10 21:11:00,
2013-01-10 16:16:00,37.4,20.0,30.39,SE,137,3.5,4.0,49,0.00,CLR,,0.00,WeatherDisplay:10.37,2013-01-10 21:16:00,
2013-01-10 16:21:00,37.4,20.4,30.39,SE,138,3.5,3.5,50,0.00,CLR,,0.00,WeatherDisplay:10.37,2013-01-10 21:21:00,
2013-01-10 16:26:00,36.9,20.4,30.39,SE,137,3.5,3.5,51,0.00,CLR,,0.00,WeatherDisplay:10.37,2013-01-10 21:26:00,
2013-01-10 16:31:00,36.7,20.7,30.39,SE,137,0.0,0.0,52,0.00,CLR,,0.00,WeatherDisplay:10.37,2013-01-10 21:31:00,
2013-01-10 16:36:00,36.1,20.6,30.39,SE,137,3.6,0.0,53,0.00,CLR,,0.00,WeatherDisplay:10.37,2013-01-10 21:36:00,
2013-01-10 16:41:00,35.8,20.7,30.39,SE,137,3.5,0.0,54,0.00,CLR,,0.00,WeatherDisplay:10.37,2013-01-10 21:41:00,
2013-01-10 16:47:00,35.6,21.0,30.39,SE,137,3.5,3.5,55,0.00,CLR,,0.00,WeatherDisplay:10.37,2013-01-10 21:47:00,
2013-01-10 16:52:00,35.4,21.3,30.39,SE,137,3.5,3.5,56,0.00,CLR,,0.00,WeatherDisplay:10.37,2013-01-10 21:52:00,
2013-01-10 16:57:00,35.2,21.5,30.39,SE,137,2.7,0.0,57,0.00,CLR,,0.00,WeatherDisplay:10.37,2013-01-10 21:57:00,
2013-01-10 17:02:00,35.1,21.8,30.39,SE,138,3.5,3.5,58,0.00,CLR,,0.00,WeatherDisplay:10.37,2013-01-10 22:02:00,
2013-01-10 17:07:00,34.9,21.6,30.39,SE,137,3.5,3.5,58,0.00,CLR,,0.00,WeatherDisplay:10.37,2013-01-10 22:07:00,
2013-01-10 17:12:00,34.7,21.8,30.39,SE,138,4.9,4.9,59,0.00,CLR,,0.00,WeatherDisplay:10.37,2013-01-10 22:12:00,
2013-01-10 17:17:00,34.7,22.2,30.39,SE,135,5.8,5.8,60,0.00,CLR,,0.00,WeatherDisplay:10.37,2013-01-10 22:17:00,
2013-01-10 17:22:00,34.5,22.4,30.39,SE,136,3.6,3.6,61,0.00,CLR,,0.00,WeatherDisplay:10.37,2013-01-10 22:22:00,
2013-01-10 17:27:00,34.5,22.4,30.39,SE,136,3.5,3.5,61,0.00,CLR,,0.00,WeatherDisplay:10.37,2013-01-10 22:27:00,
2013-01-10 17:32:00,34.5,22.4,30.39,SE,136,3.5,3.5,61,0.00,CLR,,0.00,WeatherDisplay:10.37,2013-01-10 22:32:00,
2013-01-10 17:37:00,34.3,22.7,30.39,SE,135,5.8,5.8,62,0.00,CLR,,0.00,WeatherDisplay:10.37,2013-01-10 22:37:00,
2013-01-10 17:42:00,34.2,22.5,30.39,SE,135,3.5,3.5,62,0.00,CLR,,0.00,WeatherDisplay:10.37,2013-01-10 22:42:00,
2013-01-10 17:47:00,34.0,22.3,30.39,SE,135,3.5,3.5,62,0.00,CLR,,0.00,WeatherDisplay:10.37,2013-01-10 22:47:00,
2013-01-10 17:52:00,34.0,22.7,30.39,SE,140,5.8,5.8,63,0.00,CLR,,0.00,WeatherDisplay:10.37,2013-01-10 22:52:00,
2013-01-10 17:57:00,34.2,22.9,30.39,South,172,3.5,3.6,63,0.00,CLR,,0.00,WeatherDisplay:10.37,2013-01-10 22:57:00,
2013-01-10 18:02:00,34.2,22.9,30.39,ESE,120,5.8,0.0,63,0.00,CLR,,0.00,WeatherDisplay:10.37,2013-01-10 23:02:00,
2013-01-10 18:07:00,34.0,22.7,30.39,ESE,112,4.9,4.9,63,0.00,CLR,,0.00,WeatherDisplay:10.37,2013-01-10 23:07:00,
2013-01-10 18:12:00,34.0,23.1,30.39,SE,132,5.8,5.8,64,0.00,CLR,,0.00,WeatherDisplay:10.37,2013-01-10 23:12:00,
2013-01-10 18:17:00,34.2,23.2,30.39,SSE,147,5.8,5.8,64,0.00,CLR,,0.00,WeatherDisplay:10.37,2013-01-10 23:17:00,
2013-01-10 18:22:00,34.5,22.8,30.39,ESE,114,8.1,8.1,62,0.00,CLR,,0.00,WeatherDisplay:10.37,2013-01-10 23:22:00,
2013-01-10 18:27:00,35.1,22.6,30.39,ESE,106,5.8,5.8,60,0.00,CLR,,0.00,WeatherDisplay:10.37,2013-01-10 23:27:00,
2013-01-10 18:32:00,35.1,22.6,30.39,SE,132,8.1,8.1,60,0.00,CLR,,0.00,WeatherDisplay:10.37,2013-01-10 23:32:00,
2013-01-10 18:37:00,35.2,22.3,30.39,SE,137,5.8,5.8,59,0.00,CLR,,0.00,WeatherDisplay:10.37,2013-01-10 23:37:00,
2013-01-10 18:42:00,35.6,21.9,30.39,SE,129,8.1,8.1,57,0.00,CLR,,0.00,WeatherDisplay:10.37,2013-01-10 23:42:00,
2013-01-10 18:47:00,35.8,21.6,30.39,SE,131,6.9,6.9,56,0.00,CLR,,0.00,WeatherDisplay:10.37,2013-01-10 23:47:00,
2013-01-10 18:52:00,35.8,21.2,30.39,ESE,115,6.3,6.3,55,0.00,CLR,,0.00,WeatherDisplay:10.37,2013-01-10 23:52:00,
2013-01-10 18:57:00,35.6,21.4,30.39,ESE,111,6.3,6.3,56,0.00,CLR,,0.00,WeatherDisplay:10.37,2013-01-10 23:57:00,
2013-01-10 19:02:00,35.6,21.4,30.39,East,96,5.8,5.8,56,0.00,CLR,,0.00,WeatherDisplay:10.37,2013-01-11 00:02:00,
2013-01-10 19:07:00,35.8,21.2,30.39,SE,126,5.8,5.8,55,0.00,CLR,,0.00,WeatherDisplay:10.37,2013-01-11 00:07:00,
2013-01-10 19:12:00,36.0,20.0,30.39,East,92,8.1,8.1,52,0.00,CLR,,0.00,WeatherDisplay:10.37,2013-01-11 00:12:00,
2013-01-10 19:17:00,36.3,19.9,30.36,SE,144,9.2,9.2,51,0.00,CLR,,0.00,WeatherDisplay:10.37,2013-01-11 00:17:00,
2013-01-10 19:22:00,36.3,19.4,30.36,SE,128,9.2,9.2,50,0.00,CLR,,0.00,WeatherDisplay:10.37,2013-01-11 00:22:00,
2013-01-10 19:27:00,36.3,19.9,30.36,SE,133,9.2,9.2,51,0.00,CLR,,0.00,WeatherDisplay:10.37,2013-01-11 00:27:00,
2013-01-10 19:32:00,36.1,19.7,30.36,SE,130,8.1,8.1,51,0.00,CLR,,0.00,WeatherDisplay:10.37,2013-01-11 00:32:00,
2013-01-10 19:37:00,36.3,19.9,30.36,SE,129,8.1,8.1,51,0.00,CLR,,0.00,WeatherDisplay:10.37,2013-01-11 00:37:00,
2013-01-10 19:42:00,36.3,19.0,30.36,SSE,148,8.1,8.1,49,0.00,CLR,,0.00,WeatherDisplay:10.37,2013-01-11 00:42:00,
2013-01-10 19:47:00,36.7,18.3,30.36,SE,128,9.2,9.2,47,0.00,CLR,,0.00,WeatherDisplay:10.37,2013-01-11 00:47:00,
2013-01-10 19:52:00,36.5,19.6,30.36,SSE,157,8.1,8.1,50,0.00,CLR,,0.00,WeatherDisplay:10.37,2013-01-11 00:52:00,
2013-01-10 19:57:00,36.3,19.4,30.36,ESE,120,8.1,8.1,50,0.00,CLR,,0.00,WeatherDisplay:10.37,2013-01-11 00:57:00,
2013-01-10 20:02:00,36.7,18.8,30.36,ESE,104,10.4,10.4,48,0.00,CLR,,0.00,WeatherDisplay:10.37,2013-01-11 01:02:00,
2013-01-10 20:07:00,37.0,17.1,30.36,SE,139,11.5,11.5,44,0.00,CLR,,0.00,WeatherDisplay:10.37,2013-01-11 01:07:00,
2013-01-10 20:12:00,37.4,16.4,30.36,ESE,123,10.4,10.4,42,0.00,CLR,,0.00,WeatherDisplay:10.37,2013-01-11 01:12:00,
2013-01-10 20:18:00,37.4,15.8,30.36,ESE,119,10.4,10.4,41,0.00,CLR,,0.00,WeatherDisplay:10.37,2013-01-11 01:18:00,
2013-01-10 20:23:00,37.2,16.7,30.36,SE,129,8.1,8.1,43,0.00,CLR,,0.00,WeatherDisplay:10.37,2013-01-11 01:23:00,
2013-01-10 20:28:00,37.0,16.6,30.36,SE,142,9.2,9.2,43,0.00,CLR,,0.00,WeatherDisplay:10.37,2013-01-11 01:28:00,
2013-01-10 20:33:00,37.2,16.7,30.36,SE,124,9.2,9.2,43,0.00,CLR,,0.00,WeatherDisplay:10.37,2013-01-11 01:33:00,
2013-01-10 20:38:00,37.2,16.2,30.36,SE,127,10.4,10.4,42,0.00,CLR,,0.00,WeatherDisplay:10.37,2013-01-11 01:38:00,
2013-01-10 20:43:00,37.0,16.6,30.36,ESE,106,10.4,10.4,43,0.00,CLR,,0.00,WeatherDisplay:10.37,2013-01-11 01:43:00,
2013-01-10 20:48:00,36.9,17.0,30.36,SE,140,10.4,10.4,44,0.00,CLR,,0.00,WeatherDisplay:10.37,2013-01-11 01:48:00,
2013-01-10 20:53:00,36.9,16.4,30.36,SE,138,8.1,8.1,43,0.00,CLR,,0.00,WeatherDisplay:10.37,2013-01-11 01:53:00,
2013-01-10 20:58:00,36.9,16.4,30.36,ESE,106,10.4,10.4,43,0.00,CLR,,0.00,WeatherDisplay:10.37,2013-01-11 01:58:00,
2013-01-10 21:03:00,36.9,16.4,30.36,ESE,113,8.7,8.7,43,0.00,CLR,,0.00,WeatherDisplay:10.37,2013-01-11 02:03:00,
2013-01-10 21:08:00,36.7,17.3,30.36,SE,146,8.3,8.3,45,0.00,CLR,,0.00,WeatherDisplay:10.37,2013-01-11 02:08:00,
2013-01-10 21:13:00,36.3,17.5,30.36,SSE,148,5.8,5.8,46,0.00,CLR,,0.00,WeatherDisplay:10.37,2013-01-11 02:13:00,
2013-01-10 21:18:00,36.3,18.0,30.36,SE,136,7.6,7.6,47,0.00,CLR,,0.00,WeatherDisplay:10.37,2013-01-11 02:18:00,
2013-01-10 21:23:00,36.3,17.5,30.36,ESE,104,8.1,8.1,46,0.00,CLR,,0.00,WeatherDisplay:10.37,2013-01-11 02:23:00,
2013-01-10 21:28:00,36.7,16.3,30.36,SE,134,8.1,8.1,43,0.00,CLR,,0.00,WeatherDisplay:10.37,2013-01-11 02:28:00,
2013-01-10 21:33:00,36.9,15.9,30.36,SE,126,5.8,5.8,42,0.00,CLR,,0.00,WeatherDisplay:10.37,2013-01-11 02:33:00,
2013-01-10 21:39:00,37.0,16.0,30.36,SE,139,10.4,10.4,42,0.00,CLR,,0.00,WeatherDisplay:10.37,2013-01-11 02:39:00,
2013-01-10 21:44:00,37.0,15.5,30.36,SE,144,8.1,8.1,41,0.00,CLR,,0.00,WeatherDisplay:10.37,2013-01-11 02:44:00,
2013-01-10 21:49:00,37.0,16.0,30.33,East,93,11.5,11.5,42,0.00,CLR,,0.00,WeatherDisplay:10.37,2013-01-11 02:49:00,
2013-01-10 21:54:00,37.0,15.5,30.33,SSE,150,10.4,10.4,41,0.00,CLR,,0.00,WeatherDisplay:10.37,2013-01-11 02:54:00,
2013-01-10 21:59:00,37.0,16.0,30.33,SE,130,11.5,11.5,42,0.00,CLR,,0.00,WeatherDisplay:10.37,2013-01-11 02:59:00,
2013-01-10 22:04:00,36.9,16.4,30.33,ESE,105,10.4,10.4,43,0.00,CLR,,0.00,WeatherDisplay:10.37,2013-01-11 03:04:00,
2013-01-10 22:09:00,36.7,16.8,30.33,ESE,115,11.5,11.5,44,0.00,CLR,,0.00,WeatherDisplay:10.37,2013-01-11 03:09:00,
2013-01-10 22:14:00,36.3,17.0,30.33,SE,142,10.4,10.4,45,0.00,CLR,,0.00,WeatherDisplay:10.37,2013-01-11 03:14:00,
2013-01-10 22:19:00,36.1,17.3,30.33,ESE,115,10.4,10.4,46,0.00,CLR,,0.00,WeatherDisplay:10.37,2013-01-11 03:19:00,
2013-01-10 22:24:00,36.3,17.0,30.33,South,172,9.2,9.2,45,0.00,CLR,,0.00,WeatherDisplay:10.37,2013-01-11 03:24:00,
2013-01-10 22:29:00,36.1,17.3,30.33,SE,133,8.1,8.1,46,0.00,CLR,,0.00,WeatherDisplay:10.37,2013-01-11 03:29:00,
2013-01-10 22:34:00,36.0,17.7,30.33,SE,142,8.1,8.1,47,0.00,CLR,,0.00,WeatherDisplay:10.37,2013-01-11 03:34:00,
2013-01-10 22:39:00,36.0,16.7,30.33,ESE,117,10.4,10.4,45,0.00,CLR,,0.00,WeatherDisplay:10.37,2013-01-11 03:39:00,
2013-01-10 22:44:00,36.3,17.0,30.33,SSE,154,12.7,12.7,45,0.00,CLR,,0.00,WeatherDisplay:10.37,2013-01-11 03:44:00,
2013-01-10 22:49:00,36.3,17.0,30.33,SE,133,9.2,9.2,45,0.00,CLR,,0.00,WeatherDisplay:10.37,2013-01-11 03:49:00,
2013-01-10 22:54:00,36.5,17.1,30.33,SSE,151,11.5,11.5,45,0.00,FEW,,0.00,WeatherDisplay:10.37,2013-01-11 03:54:00,
2013-01-10 23:00:00,36.5,17.1,30.33,SE,144,11.5,11.5,45,0.00,FEW,,0.00,WeatherDisplay:10.37,2013-01-11 04:00:00,
2013-01-10 23:05:00,36.5,16.6,30.33,South,172,13.8,13.8,44,0.00,BKN,,0.00,WeatherDisplay:10.37,2013-01-11 04:05:00,
2013-01-10 23:10:00,36.7,16.3,30.33,SSE,159,5.8,5.8,43,0.00,BKN,,0.00,WeatherDisplay:10.37,2013-01-11 04:10:00,
2013-01-10 23:15:00,36.7,16.8,30.33,SE,127,11.5,11.5,44,0.00,BKN,,0.00,WeatherDisplay:10.37,2013-01-11 04:15:00,
2013-01-10 23:20:00,36.5,16.6,30.33,SE,141,5.8,5.8,44,0.00,BKN,,0.00,WeatherDisplay:10.37,2013-01-11 04:20:00,
2013-01-10 23:25:00,36.3,17.0,30.33,SE,127,5.8,5.8,45,0.00,BKN,,0.00,WeatherDisplay:10.37,2013-01-11 04:25:00,
2013-01-10 23:30:00,36.3,17.5,30.30,SE,145,8.1,8.1,46,0.00,BKN,,0.00,WeatherDisplay:10.37,2013-01-11 04:30:00,
2013-01-10 23:35:00,36.1,17.3,30.30,SE,135,8.1,8.1,46,0.00,BKN,,0.00,WeatherDisplay:10.37,2013-01-11 04:35:00,
2013-01-10 23:40:00,36.1,16.8,30.30,ESE,117,8.1,8.1,45,0.00,BKN,,0.00,WeatherDisplay:10.37,2013-01-11 04:40:00,
2013-01-10 23:45:00,36.1,17.8,30.30,SSE,160,12.7,12.7,47,0.00,BKN,,0.00,WeatherDisplay:10.37,2013-01-11 04:45:00,
2013-01-10 23:50:00,36.0,18.1,30.30,SE,141,9.2,9.2,48,0.00,BKN,,0.00,WeatherDisplay:10.37,2013-01-11 04:50:00,
2013-01-10 23:55:00,35.8,18.0,30.30,SSE,150,11.5,11.5,48,0.00,BKN,,0.00,WeatherDisplay:10.37,2013-01-11 04:55:00,